Waskatenau, Canada
Current Conditions -  °F | °C
As of 1:00 PM on Wednesday 26 Nov 2014 (Local Time) from CYED Reporting Station
Few Clouds Few Clouds  
Wind Chill: 21°   Ceiling: Unl
Heat Index: 21°   Visibility: 8mi
Dew Point: 16°   Wind: 2mph
Humidity: 80%   Direction: 230°SW
Pressure: 30.14"   Gusts: NA
Location:  54.09°N, 112.79°W
Report Text: CYED 262000Z AUTO 23002KT 8SM FEW050 M06/M09 A3014 RMK SLP254
Loading
Personal Weather Stations






























Interactive Weather Map New forecast layout! Learn more

10-Day Weather Forecast

Advertisements
Track Severe Weather on mobile